createdAt,value
2019-03-02T00:00:24.235Z,10.20
2019-03-02T00:02:56.857Z,11.73
2019-03-02T00:05:27.454Z,12.17
2019-03-02T00:07:58.839Z,8.27
2019-03-02T00:10:29.260Z,9.20
2019-03-02T00:13:03.881Z,11.37
2019-03-02T00:15:33.774Z,4.80
2019-03-02T00:18:04.215Z,6.73
2019-03-02T00:20:34.558Z,10.90
2019-03-02T00:23:06.012Z,10.27
2019-03-02T00:25:36.454Z,12.27
2019-03-02T00:28:07.018Z,8.87
2019-03-02T00:30:39.206Z,8.60
2019-03-02T00:33:11.452Z,7.63
2019-03-02T00:35:43.751Z,10.60
2019-03-02T00:38:13.814Z,8.83
2019-03-02T00:40:46.162Z,13.90
2019-03-02T00:43:16.486Z,11.33
2019-03-02T00:45:48.905Z,10.37
2019-03-02T00:48:18.912Z,12.23
2019-03-02T00:50:49.455Z,11.10
2019-03-02T00:53:21.324Z,6.50
2019-03-02T00:55:54.654Z,8.07
2019-03-02T00:58:25.597Z,14.70
2019-03-02T01:00:59.086Z,7.80
2019-03-02T01:03:29.575Z,5.73
2019-03-02T01:06:02.063Z,10.87
2019-03-02T01:08:35.012Z,10.03
2019-03-02T01:11:04.501Z,10.23
2019-03-02T01:13:34.986Z,10.37
2019-03-02T01:16:05.573Z,10.80
2019-03-02T01:18:38.653Z,15.50
2019-03-02T01:21:09.793Z,10.37
2019-03-02T01:23:40.244Z,5.60
2019-03-02T01:26:11.062Z,8.47
2019-03-02T01:28:44.561Z,9.30
2019-03-02T01:31:15.614Z,8.83
2019-03-02T01:33:46.002Z,8.30
2019-03-02T01:36:16.503Z,5.30
2019-03-02T01:38:47.057Z,8.93
2019-03-02T01:41:18.856Z,9.20
2019-03-02T01:43:49.969Z,9.83
2019-03-02T01:46:20.381Z,11.13
2019-03-02T01:48:50.645Z,11.37
2019-03-02T01:51:23.168Z,7.90
2019-03-02T01:53:53.138Z,9.40
2019-03-02T01:56:23.673Z,9.03
2019-03-02T01:58:54.145Z,5.30
2019-03-02T02:01:25.786Z,8.80
2019-03-02T02:03:56.375Z,9.07
2019-03-02T02:06:26.633Z,10.07
2019-03-02T02:08:57.274Z,12.57
2019-03-02T02:11:27.793Z,9.67
2019-03-02T02:13:58.130Z,6.70
2019-03-02T02:16:28.661Z,5.87
2019-03-02T02:18:59.288Z,7.13
2019-03-02T02:21:30.333Z,4.77
2019-03-02T02:24:00.663Z,6.77
2019-03-02T02:26:32.212Z,11.37
2019-03-02T02:29:04.569Z,4.90
2019-03-02T02:31:34.954Z,9.53
2019-03-02T02:34:05.451Z,9.67
2019-03-02T02:36:35.811Z,7.67
2019-03-02T02:39:08.248Z,10.23
2019-03-02T02:41:38.750Z,8.40
2019-03-02T02:44:09.012Z,7.63
2019-03-02T02:46:39.662Z,9.60
2019-03-02T02:49:10.594Z,4.10
2019-03-02T02:51:44.353Z,8.07
2019-03-02T02:54:14.114Z,8.87
2019-03-02T02:56:44.532Z,6.70
2019-03-02T02:59:14.724Z,11.23
2019-03-02T03:01:45.205Z,7.00
2019-03-02T03:04:15.641Z,6.60
2019-03-02T03:06:46.015Z,9.17
2019-03-02T03:09:38.067Z,6.60
2019-03-02T03:12:08.541Z,8.73
2019-03-02T03:14:39.041Z,5.97
2019-03-02T03:17:09.653Z,6.47
2019-03-02T03:19:40.039Z,10.03
2019-03-02T03:22:10.453Z,6.83
2019-03-02T03:24:41.941Z,9.90
2019-03-02T03:27:13.223Z,10.13
2019-03-02T03:29:49.204Z,9.00
2019-03-02T03:32:20.212Z,8.37
2019-03-02T03:34:52.725Z,9.00
2019-03-02T03:37:23.160Z,6.53
2019-03-02T03:39:53.615Z,11.53
2019-03-02T03:42:24.769Z,10.33
2019-03-02T03:44:59.747Z,6.37
2019-03-02T03:47:27.986Z,11.90
2019-03-02T03:49:58.325Z,7.00
2019-03-02T03:52:28.701Z,8.97
2019-03-02T03:54:59.139Z,11.63
2019-03-02T03:57:31.337Z,9.07
2019-03-02T04:00:02.101Z,8.57
2019-03-02T04:02:35.320Z,9.70
2019-03-02T04:05:08.564Z,6.57
2019-03-02T04:07:37.615Z,7.27
2019-03-02T04:10:10.529Z,12.27
2019-03-02T04:12:41.112Z,10.00
2019-03-02T04:15:12.211Z,9.70
2019-03-02T04:17:45.683Z,8.83
2019-03-02T04:20:22.893Z,9.23
2019-03-02T04:22:54.033Z,8.83
2019-03-02T04:25:24.648Z,12.03
2019-03-02T04:27:56.109Z,12.77
2019-03-02T04:30:31.149Z,7.90
2019-03-02T04:33:01.770Z,10.33
2019-03-02T04:35:33.819Z,6.93
2019-03-02T04:38:02.805Z,9.23
2019-03-02T04:40:33.296Z,7.53
2019-03-02T04:43:03.644Z,6.93
2019-03-02T04:45:36.510Z,9.47
2019-03-02T04:48:06.369Z,12.00
2019-03-02T04:50:36.719Z,8.57
2019-03-02T04:53:10.095Z,5.70
2019-03-02T04:55:45.670Z,8.03
2019-03-02T04:58:14.873Z,7.50
2019-03-02T05:00:45.532Z,5.33
2019-03-02T05:03:15.827Z,8.00
2019-03-02T05:05:46.472Z,7.77
2019-03-02T05:08:17.143Z,5.87
2019-03-02T05:10:47.663Z,7.33
2019-03-02T05:13:18.182Z,6.23
2019-03-02T05:15:48.930Z,6.27
2019-03-02T05:18:21.100Z,5.87
2019-03-02T05:20:52.708Z,5.37
2019-03-02T05:23:27.666Z,10.90
2019-03-02T05:25:57.055Z,5.20
2019-03-02T05:28:39.705Z,4.40
2019-03-02T05:31:08.975Z,4.90
2019-03-02T05:33:39.598Z,5.60
2019-03-02T05:36:10.036Z,9.73
2019-03-02T05:38:40.406Z,7.63
2019-03-02T05:41:10.597Z,5.73
2019-03-02T05:43:40.743Z,4.93
2019-03-02T05:46:10.992Z,3.63
2019-03-02T05:48:42.913Z,7.43
2019-03-02T05:51:14.842Z,6.30
2019-03-02T05:53:45.016Z,6.60
2019-03-02T05:56:15.176Z,4.50
2019-03-02T05:58:47.680Z,5.77
2019-03-02T06:01:17.278Z,5.60
2019-03-02T06:03:47.635Z,5.63
2019-03-02T06:06:17.957Z,6.73
2019-03-02T06:08:48.248Z,4.83
2019-03-02T06:11:18.432Z,5.50
2019-03-02T06:13:48.674Z,3.87
2019-03-02T06:16:21.732Z,4.33
2019-03-02T06:18:54.309Z,5.87
2019-03-02T06:21:24.696Z,7.27
2019-03-02T06:23:54.807Z,6.97
2019-03-02T06:26:25.103Z,6.17
2019-03-02T06:28:57.837Z,9.00
2019-03-02T06:31:28.034Z,4.43
2019-03-02T06:33:58.396Z,7.93
2019-03-02T06:36:30.048Z,5.13
2019-03-02T06:39:03.885Z,4.80
2019-03-02T06:41:33.195Z,5.63
2019-03-02T06:44:05.102Z,8.37
2019-03-02T06:46:35.747Z,5.20
2019-03-02T06:49:07.538Z,4.67
2019-03-02T06:51:43.712Z,5.63
2019-03-02T06:54:13.115Z,4.30
2019-03-02T06:56:45.238Z,4.63
2019-03-02T06:59:15.884Z,7.33
2019-03-02T07:01:46.394Z,6.03
2019-03-02T07:04:18.045Z,4.43
2019-03-02T07:06:49.216Z,8.20
2019-03-02T07:09:20.489Z,5.00
2019-03-02T07:11:51.259Z,6.33
2019-03-02T07:14:24.250Z,5.03
2019-03-02T07:16:57.216Z,5.20
2019-03-02T07:19:48.709Z,5.07
2019-03-02T07:22:19.177Z,6.93
2019-03-02T07:24:52.381Z,5.20
2019-03-02T07:27:26.345Z,4.63
2019-03-02T07:29:55.934Z,7.40
2019-03-02T07:32:26.680Z,4.93
2019-03-02T07:34:58.570Z,6.43
2019-03-02T07:37:29.275Z,6.93
2019-03-02T07:40:00.620Z,6.20
2019-03-02T07:42:33.491Z,7.63
2019-03-02T07:45:05.101Z,5.67
2019-03-02T07:47:35.929Z,4.97
2019-03-02T07:50:07.857Z,5.47
2019-03-02T07:52:39.232Z,4.83
2019-03-02T07:55:14.669Z,4.83
2019-03-02T07:57:45.744Z,5.87
2019-03-02T08:00:18.892Z,7.57
2019-03-02T08:02:50.210Z,7.93
2019-03-02T08:05:21.496Z,6.53
2019-03-02T08:07:52.099Z,6.67
2019-03-02T08:10:23.023Z,5.50
2019-03-02T08:12:54.125Z,5.00
2019-03-02T08:15:25.900Z,7.60
2019-03-02T08:17:57.139Z,4.87
2019-03-02T08:20:30.630Z,7.93
2019-03-02T08:23:01.723Z,5.67
2019-03-02T08:25:32.497Z,5.77
2019-03-02T08:28:03.136Z,4.63
2019-03-02T08:30:34.263Z,5.80
2019-03-02T08:33:05.680Z,4.77
2019-03-02T08:35:36.506Z,5.60
2019-03-02T08:38:07.594Z,4.67
2019-03-02T08:40:39.982Z,6.83
2019-03-02T08:43:13.053Z,6.73
2019-03-02T08:45:43.599Z,8.60
2019-03-02T08:48:15.711Z,6.67
2019-03-02T08:50:49.830Z,7.03
2019-03-02T08:53:19.232Z,7.07
2019-03-02T08:55:50.369Z,7.80
2019-03-02T08:58:22.616Z,10.73
2019-03-02T09:00:53.559Z,8.27
2019-03-02T09:03:24.442Z,8.00
2019-03-02T09:05:55.812Z,9.53
2019-03-02T09:08:26.542Z,11.50
2019-03-02T09:10:57.466Z,12.23
2019-03-02T09:13:31.016Z,13.67
2019-03-02T09:16:01.402Z,13.20
2019-03-02T09:18:44.353Z,14.17
2019-03-02T09:21:09.062Z,8.20
2019-03-02T09:23:38.785Z,15.37
2019-03-02T09:26:09.825Z,19.50
2019-03-02T09:28:42.076Z,18.37
2019-03-02T09:31:13.489Z,18.23
2019-03-02T09:33:44.889Z,20.07
2019-03-02T09:36:15.993Z,14.20
2019-03-02T09:38:46.633Z,17.57
2019-03-02T09:41:17.694Z,17.60
2019-03-02T09:43:48.536Z,19.27
2019-03-02T09:46:21.218Z,20.83
2019-03-02T09:48:56.928Z,20.27
2019-03-02T09:51:25.979Z,22.60
2019-03-02T09:53:58.917Z,19.73
2019-03-02T09:56:29.765Z,21.43
2019-03-02T09:59:01.527Z,20.77
2019-03-02T10:01:35.808Z,22.60
2019-03-02T10:04:06.881Z,21.00
2019-03-02T10:06:37.659Z,23.50
2019-03-02T10:09:08.613Z,23.30
2019-03-02T10:11:39.432Z,20.90
2019-03-02T10:14:26.557Z,24.87
2019-03-02T10:16:57.651Z,21.67
2019-03-02T10:19:29.690Z,22.73
2019-03-02T10:22:01.355Z,28.93
2019-03-02T10:24:35.395Z,24.33
2019-03-02T10:27:06.048Z,27.30
2019-03-02T10:29:36.829Z,23.50
2019-03-02T10:32:08.001Z,24.10
2019-03-02T10:34:41.989Z,23.87
2019-03-02T10:37:11.717Z,21.63
2019-03-02T10:39:42.488Z,22.53
2019-03-02T10:42:17.537Z,18.00
2019-03-02T10:44:48.170Z,21.67
2019-03-02T10:47:19.160Z,19.57
2019-03-02T10:49:50.043Z,17.70
2019-03-02T10:52:21.145Z,18.13
2019-03-02T10:54:52.369Z,18.80
2019-03-02T10:57:22.901Z,18.77
2019-03-02T10:59:53.595Z,19.27
2019-03-02T11:02:25.889Z,16.53
2019-03-02T11:04:59.989Z,17.80
2019-03-02T11:07:55.392Z,18.00
2019-03-02T11:10:53.514Z,17.40
2019-03-02T11:13:41.707Z,19.20
2019-03-02T11:16:37.613Z,15.50
2019-03-02T11:19:28.231Z,14.03
2019-03-02T11:22:19.791Z,11.37
2019-03-02T11:25:11.659Z,12.37
2019-03-02T11:28:00.190Z,12.97
2019-03-02T11:30:43.964Z,12.30
2019-03-02T11:33:40.285Z,9.67
2019-03-02T11:36:49.265Z,11.10
2019-03-02T11:39:37.774Z,10.40
2019-03-02T11:42:25.979Z,9.20
2019-03-02T11:45:14.622Z,10.30
2019-03-02T11:48:09.195Z,11.27
2019-03-02T11:50:58.446Z,9.60
2019-03-02T11:53:44.463Z,12.27
2019-03-02T11:56:34.389Z,14.67
2019-03-02T11:59:30.233Z,13.03
2019-03-02T12:02:19.935Z,17.10
2019-03-02T12:05:10.771Z,13.70
2019-03-02T12:07:59.033Z,11.00
2019-03-02T12:10:58.408Z,13.00
2019-03-02T12:13:51.017Z,10.93
2019-03-02T12:16:38.357Z,10.13
2019-03-02T12:19:20.238Z,8.93
2019-03-02T12:22:16.153Z,9.60
2019-03-02T12:25:06.761Z,8.23
2019-03-02T12:27:58.841Z,7.93
2019-03-02T12:30:46.571Z,8.13
2019-03-02T12:33:57.330Z,11.20
2019-03-02T12:37:03.226Z,7.87
2019-03-02T12:40:08.311Z,9.43
2019-03-02T12:42:59.883Z,8.97
2019-03-02T12:45:52.758Z,10.30
2019-03-02T12:48:46.362Z,9.63
2019-03-02T12:51:39.381Z,11.17
2019-03-02T12:54:39.193Z,9.93
2019-03-02T12:57:19.321Z,7.40
2019-03-02T13:00:09.010Z,12.90
2019-03-02T13:02:58.956Z,10.10
2019-03-02T13:05:48.075Z,11.90
2019-03-02T13:08:46.464Z,12.07
2019-03-02T13:11:37.051Z,10.37
2019-03-02T13:14:16.929Z,11.70
2019-03-02T13:17:09.591Z,10.63
2019-03-02T13:20:04.930Z,14.07
2019-03-02T13:22:58.283Z,16.60
2019-03-02T13:25:43.548Z,12.53
2019-03-02T13:28:40.434Z,12.60
2019-03-02T13:31:43.428Z,13.87
2019-03-02T13:34:37.666Z,15.13
2019-03-02T13:37:27.324Z,23.37
2019-03-02T13:40:16.871Z,15.07
2019-03-02T13:43:12.327Z,16.80
2019-03-02T13:46:02.481Z,16.17
2019-03-02T13:48:51.862Z,15.90
2019-03-02T13:51:40.144Z,17.33
2019-03-02T13:54:16.056Z,15.93
2019-03-02T13:57:22.776Z,17.63
2019-03-02T14:00:07.194Z,16.93
2019-03-02T14:02:59.147Z,15.20
2019-03-02T14:05:51.826Z,13.93
2019-03-02T14:08:50.712Z,18.77
2019-03-02T14:11:39.751Z,23.57
2019-03-02T14:14:21.227Z,18.77
2019-03-02T14:17:11.817Z,16.40
2019-03-02T14:20:02.140Z,15.60
2019-03-02T14:22:54.186Z,16.10
2019-03-02T14:25:47.922Z,18.10
2019-03-02T14:28:43.437Z,15.87
2019-03-02T14:31:34.066Z,16.37
2019-03-02T14:34:14.389Z,17.50
2019-03-02T14:37:03.942Z,17.10
2019-03-02T14:39:47.668Z,16.23
2019-03-02T14:42:24.283Z,18.93
2019-03-02T14:45:13.750Z,17.37
2019-03-02T14:48:02.495Z,16.87
2019-03-02T14:51:08.224Z,17.40
2019-03-02T14:54:04.101Z,17.80
2019-03-02T14:56:44.928Z,18.30
2019-03-02T14:59:33.967Z,19.57
2019-03-02T15:02:27.572Z,18.97
2019-03-02T15:05:08.194Z,18.37
2019-03-02T15:08:01.040Z,16.80
2019-03-02T15:10:50.722Z,17.33
2019-03-02T15:13:34.029Z,18.80
2019-03-02T15:16:11.880Z,19.90
2019-03-02T15:19:07.865Z,21.67
2019-03-02T15:21:56.336Z,17.43
2019-03-02T15:24:35.968Z,23.10
2019-03-02T15:27:16.706Z,27.60
2019-03-02T15:30:03.841Z,27.80
2019-03-02T15:32:53.277Z,26.00
2019-03-02T15:35:42.480Z,25.20
2019-03-02T15:38:36.108Z,29.97
2019-03-02T15:41:23.242Z,33.80
2019-03-02T15:44:17.636Z,26.90
2019-03-02T15:47:13.711Z,49.53
2019-03-02T15:50:03.517Z,34.57
2019-03-02T15:52:57.440Z,29.93
2019-03-02T15:55:45.219Z,27.93
2019-03-02T15:58:32.244Z,27.73
2019-03-02T16:01:23.242Z,27.53
2019-03-02T16:04:21.750Z,29.20
2019-03-02T16:07:06.451Z,30.87
2019-03-02T16:10:07.226Z,34.87
2019-03-02T16:12:57.382Z,28.17
2019-03-02T16:15:48.958Z,27.00
2019-03-02T16:18:26.360Z,25.27
2019-03-02T16:21:11.924Z,27.17
2019-03-02T16:24:01.504Z,28.23
2019-03-02T16:26:49.103Z,27.43
2019-03-02T16:29:42.702Z,22.17
2019-03-02T16:32:30.003Z,30.90
2019-03-02T16:35:21.044Z,27.00
2019-03-02T16:38:23.329Z,26.63
2019-03-02T16:41:13.123Z,27.90
2019-03-02T16:44:09.243Z,30.83
2019-03-02T16:46:47.540Z,28.17
2019-03-02T16:49:39.835Z,28.27
2019-03-02T16:52:38.908Z,29.97
2019-03-02T16:55:31.655Z,33.90
2019-03-02T16:58:30.324Z,30.27
2019-03-02T17:01:26.062Z,32.90
2019-03-02T17:04:18.761Z,34.23
2019-03-02T17:07:06.386Z,33.60
2019-03-02T17:09:47.483Z,32.07
2019-03-02T17:12:24.084Z,33.43
2019-03-02T17:15:22.600Z,34.13
2019-03-02T17:18:14.732Z,31.40
2019-03-02T17:21:09.975Z,35.27
2019-03-02T17:23:49.727Z,35.73
2019-03-02T17:26:49.510Z,33.60
2019-03-02T17:29:36.685Z,32.33
2019-03-02T17:32:17.775Z,32.03
2019-03-02T17:35:29.187Z,33.43
2019-03-02T17:38:20.471Z,30.87
2019-03-02T17:41:14.946Z,31.03
2019-03-02T17:44:02.533Z,34.80
2019-03-02T17:46:41.599Z,31.30
2019-03-02T17:49:41.022Z,32.00
2019-03-02T17:52:29.763Z,31.03
2019-03-02T17:55:28.660Z,33.03
2019-03-02T17:58:17.774Z,32.30
2019-03-02T18:01:22.263Z,27.57
2019-03-02T18:04:20.397Z,28.47
2019-03-02T18:07:00.818Z,32.43
2019-03-02T18:09:46.783Z,30.20
2019-03-02T18:12:54.219Z,29.57
2019-03-02T18:15:43.535Z,27.83
2019-03-02T18:18:14.489Z,26.07
2019-03-02T18:20:44.842Z,26.10
2019-03-02T18:23:18.975Z,26.70
2019-03-02T18:25:48.521Z,28.17
2019-03-02T18:28:20.187Z,27.73
2019-03-02T18:30:50.825Z,24.07
2019-03-02T18:33:40.221Z,25.53
2019-03-02T18:36:13.236Z,25.57
2019-03-02T18:38:44.616Z,23.03
2019-03-02T18:41:18.203Z,23.70
2019-03-02T18:43:49.151Z,26.03
2019-03-02T18:46:19.939Z,29.47
2019-03-02T18:49:14.852Z,24.97
2019-03-02T18:51:55.699Z,22.67
2019-03-02T18:54:27.302Z,22.23
2019-03-02T18:56:58.237Z,20.87
2019-03-02T18:59:29.045Z,23.77
2019-03-02T19:02:00.668Z,23.53
2019-03-02T19:04:33.729Z,22.83
2019-03-02T19:07:04.933Z,22.20
2019-03-02T19:09:35.848Z,21.20
2019-03-02T19:12:06.461Z,22.53
2019-03-02T19:14:37.010Z,26.83
2019-03-02T19:17:07.830Z,18.77
2019-03-02T19:19:38.599Z,21.40
2019-03-02T19:22:15.555Z,21.03
2019-03-02T19:24:46.053Z,22.47
2019-03-02T19:27:16.605Z,21.50
2019-03-02T19:29:47.298Z,27.93
2019-03-02T19:32:17.687Z,21.97
2019-03-02T19:34:48.612Z,25.50
2019-03-02T19:37:19.806Z,25.03
2019-03-02T19:39:50.291Z,24.73
2019-03-02T19:42:21.043Z,23.93
2019-03-02T19:44:51.638Z,28.17
2019-03-02T19:47:23.161Z,29.97
2019-03-02T19:49:54.017Z,28.90
2019-03-02T19:52:26.715Z,25.47
2019-03-02T19:54:59.072Z,26.00
2019-03-02T19:57:29.561Z,26.23
2019-03-02T20:00:02.252Z,23.10
2019-03-02T20:02:32.837Z,25.67
2019-03-02T20:05:03.398Z,30.97
2019-03-02T20:07:34.252Z,24.17
2019-03-02T20:10:05.618Z,27.50
2019-03-02T20:12:36.501Z,29.90
2019-03-02T20:15:09.568Z,22.53
2019-03-02T20:17:40.019Z,28.10
2019-03-02T20:20:12.247Z,27.97
2019-03-02T20:22:42.866Z,27.07
2019-03-02T20:25:14.121Z,27.30
2019-03-02T20:27:44.557Z,25.23
2019-03-02T20:30:16.929Z,27.07
2019-03-02T20:32:49.964Z,28.20
2019-03-02T20:35:22.024Z,25.53
2019-03-02T20:37:52.556Z,25.47
2019-03-02T20:40:23.389Z,27.33
2019-03-02T20:42:53.952Z,28.40
2019-03-02T20:45:24.512Z,27.20
2019-03-02T20:47:55.341Z,29.27
2019-03-02T20:50:25.722Z,28.53
2019-03-02T20:52:56.094Z,27.90
2019-03-02T20:55:26.429Z,25.07
2019-03-02T20:57:57.080Z,29.73
2019-03-02T21:00:28.509Z,28.97
2019-03-02T21:02:59.038Z,27.17
2019-03-02T21:05:29.581Z,29.87
2019-03-02T21:08:01.195Z,29.43
2019-03-02T21:10:31.831Z,29.93
2019-03-02T21:13:02.490Z,28.53
2019-03-02T21:15:35.163Z,28.23
2019-03-02T21:18:07.307Z,26.87
2019-03-02T21:20:40.239Z,28.07
2019-03-02T21:23:10.954Z,30.83
2019-03-02T21:25:41.684Z,32.40
2019-03-02T21:28:12.285Z,29.70
2019-03-02T21:30:42.791Z,31.23
2019-03-02T21:33:13.566Z,31.77
2019-03-02T21:35:44.108Z,29.67
2019-03-02T21:38:14.591Z,28.60
2019-03-02T21:40:45.501Z,31.10
2019-03-02T21:43:15.938Z,32.53
2019-03-02T21:45:46.924Z,34.70
2019-03-02T21:48:17.567Z,30.83
2019-03-02T21:50:48.026Z,25.43
2019-03-02T21:53:21.547Z,29.10
2019-03-02T21:55:52.089Z,34.23
2019-03-02T21:58:24.452Z,36.57
2019-03-02T22:00:55.183Z,35.13
2019-03-02T22:03:25.934Z,32.40
2019-03-02T22:05:56.330Z,31.43
2019-03-02T22:08:26.725Z,28.17
2019-03-02T22:11:04.280Z,31.93
2019-03-02T22:13:34.926Z,32.60
2019-03-02T22:16:05.468Z,31.90
2019-03-02T22:18:36.202Z,33.70
2019-03-02T22:21:07.976Z,34.20
2019-03-02T22:23:38.755Z,29.47
2019-03-02T22:26:09.264Z,34.37
2019-03-02T22:28:39.912Z,28.07
2019-03-02T22:31:11.062Z,34.53
2019-03-02T22:33:41.636Z,33.93
2019-03-02T22:36:12.385Z,29.97
2019-03-02T22:38:42.849Z,28.70
2019-03-02T22:41:13.225Z,27.77
2019-03-02T22:43:43.710Z,32.03
2019-03-02T22:46:14.254Z,29.70
2019-03-02T22:48:45.178Z,29.30
2019-03-02T22:51:15.821Z,28.97
2019-03-02T22:53:46.514Z,29.40
2019-03-02T22:56:16.986Z,27.67
2019-03-02T22:58:46.750Z,27.57
2019-03-02T23:01:49.726Z,29.00
2019-03-02T23:04:20.124Z,27.17
2019-03-02T23:06:50.816Z,23.77
2019-03-02T23:09:21.468Z,26.13
2019-03-02T23:11:52.771Z,23.30
2019-03-02T23:14:23.420Z,25.17
2019-03-02T23:16:55.319Z,27.10
2019-03-02T23:19:26.061Z,25.17
2019-03-02T23:21:56.434Z,25.30
2019-03-02T23:24:26.838Z,26.23
2019-03-02T23:26:57.199Z,27.13
2019-03-02T23:29:27.996Z,27.67
2019-03-02T23:31:58.431Z,27.17
2019-03-02T23:34:36.922Z,30.60
2019-03-02T23:37:01.398Z,32.43
2019-03-02T23:39:31.771Z,33.87
2019-03-02T23:42:02.314Z,29.80
2019-03-02T23:44:32.834Z,27.83
2019-03-02T23:47:03.650Z,25.83
2019-03-02T23:49:34.099Z,23.30
2019-03-02T23:52:04.530Z,25.53
2019-03-02T23:54:35.003Z,23.23
2019-03-02T23:57:05.496Z,21.30
2019-03-02T23:59:35.854Z,24.03
